00:30
Airports
History
Links
Donate
Help keep this website running!
PayPal
Bitcoin
Information on this page is community maintained and may be outdated or inaccurate and is intended for reference only or PC simulator navigating!
Always use approved charts for navigating.
SBPR
CARLOS PRATES
CARLOS PRATES (SBPR)
Belo Horizonte, Minas Gerais, Brazil (30730)
(U)
Lat/Lng:19° 54' 33" S / 43° 59' 27" W
-19.909167 / -43.990834
Elevation:3044'ft 928mMSL
ID / ICAO:SBPR
Runways:1
Longest:(09-27) 917.3m 3,010ft Asphalt
Distance To
Airport ID:
Airport Radio Frequencies
BELO HORIZONTE ATIS: 127.45
Tower: 125.85
Nearby WeatherUpdated 03-30-17 22:00 GMT
Nearby weather at SBBH, Pampulha located 4.8 nautical miles from SBPR
Altimeter: 30.21
Visibility: 6.2 statute miles
Wind: 8 knots (120°)
Temp: 20°c 68°f
Humidity: 68.4%

METAR: SBBH 302200Z 12008KT 9999 BKN040 BKN100 20/14 Q1023

(Powered by phpweather)
Runway 09 / 27
Dimensions:917.3 x 18m 3010' x 59'ft
Surface:Asphalt
Runway 09 [A]Runway 27 [B]
Heading:066°TH 246°TH
Lat:
Lng:
19° 54' 38.88"S
43° 59' 41.64"W
19° 54' 27.12"S
43° 59' 12.36"W
Google Map
Nearby Airports
(C) Pampulha 4.8 NM
SBBH (WX) NNE 33°
(C) LAGOA SANTA 18.2 NM
SBLS NNE 19°
4 Fazenda Haras RPC 18.4 NM
SJQT SSE 166°
(C) Tancredo Neves 19.1 NM
SBCF (WX) N
4 Fazenda das Perobas 30.1 NM
SWJX NNW 338°
4 Cirrus Sociedade Aerodesportiva 32.1 NM
SIVJ N 10°
4 Serra do Cipo 38.7 NM
SNLG NNE 24°
VFR Chart
Flight Planning at SkyVector.com